createdAt,value
2023-05-08T00:00:55.119Z,16.45
2023-05-08T00:04:11.272Z,16.37
2023-05-08T00:06:51.299Z,16.37
2023-05-08T00:09:39.307Z,16.38
2023-05-08T00:12:32.519Z,16.27
2023-05-08T00:19:39.631Z,16.65
2023-05-08T00:22:10.880Z,17.17
2023-05-08T00:24:56.144Z,17.07
2023-05-08T00:28:10.198Z,17.13
2023-05-08T00:31:04.244Z,17.63
2023-05-08T00:34:00.202Z,17.60
2023-05-08T00:37:05.219Z,17.81
2023-05-08T00:39:43.429Z,17.93
2023-05-08T00:42:27.178Z,18.11
2023-05-08T00:45:10.265Z,17.76
2023-05-08T00:48:05.112Z,17.73
2023-05-08T00:50:36.024Z,17.75
2023-05-08T00:53:21.334Z,17.63
2023-05-08T00:56:00.423Z,17.84
2023-05-08T00:58:56.105Z,17.78
2023-05-08T01:01:27.084Z,17.61
2023-05-08T01:04:06.834Z,17.89
2023-05-08T01:06:39.704Z,17.55
2023-05-08T01:09:09.964Z,17.58
2023-05-08T01:11:49.227Z,17.65
2023-05-08T01:14:54.001Z,18.07
2023-05-08T01:17:39.323Z,17.88
2023-05-08T01:20:35.620Z,17.52
2023-05-08T01:23:23.325Z,17.56
2023-05-08T01:25:55.039Z,17.74
2023-05-08T01:28:36.109Z,17.63
2023-05-08T01:31:48.840Z,17.49
2023-05-08T01:34:59.492Z,17.68
2023-05-08T01:37:47.422Z,17.40
2023-05-08T01:40:43.093Z,17.66
2023-05-08T01:43:26.467Z,17.94
2023-05-08T01:45:57.673Z,17.59
2023-05-08T01:48:37.104Z,17.76
2023-05-08T01:51:20.762Z,17.44
2023-05-08T01:54:02.148Z,17.15
2023-05-08T01:56:32.272Z,17.26
2023-05-08T01:59:03.682Z,17.19
2023-05-08T02:01:35.402Z,16.91
2023-05-08T02:04:07.379Z,16.79
2023-05-08T02:06:40.082Z,16.75
2023-05-08T02:09:12.135Z,16.63
2023-05-08T02:11:44.188Z,16.42
2023-05-08T02:14:16.045Z,16.54
2023-05-08T02:16:46.864Z,16.84
2023-05-08T02:19:18.326Z,17.14
2023-05-08T02:21:49.496Z,17.11
2023-05-08T02:24:19.197Z,16.95
2023-05-08T02:26:49.735Z,17.01
2023-05-08T02:29:20.333Z,16.70
2023-05-08T02:31:50.939Z,16.80
2023-05-08T02:34:25.589Z,16.65
2023-05-08T02:36:56.132Z,16.43
2023-05-08T02:39:30.111Z,16.50
2023-05-08T02:42:00.456Z,16.39
2023-05-08T02:44:30.302Z,16.42
2023-05-08T02:47:10.246Z,16.28
2023-05-08T02:50:08.433Z,16.31
2023-05-08T02:52:50.212Z,16.31
2023-05-08T02:55:50.152Z,15.98
2023-05-08T02:58:26.307Z,15.84
2023-05-08T03:01:09.361Z,15.97
2023-05-08T03:03:46.445Z,15.97
2023-05-08T03:06:20.551Z,15.89
2023-05-08T03:08:56.151Z,15.74
2023-05-08T03:11:38.574Z,15.67
2023-05-08T03:14:15.631Z,15.62
2023-05-08T03:16:59.838Z,15.55
2023-05-08T03:19:36.051Z,15.24
2023-05-08T03:22:12.635Z,15.16
2023-05-08T03:24:50.342Z,15.36
2023-05-08T03:27:21.379Z,15.37
2023-05-08T03:29:53.235Z,15.36
2023-05-08T03:32:25.733Z,15.40
2023-05-08T03:34:56.953Z,15.25
2023-05-08T03:37:31.060Z,15.16
2023-05-08T03:40:00.812Z,14.99
2023-05-08T03:42:33.242Z,14.99
2023-05-08T03:45:07.788Z,14.85
2023-05-08T03:47:51.818Z,14.76
2023-05-08T03:50:53.410Z,14.77
2023-05-08T03:53:36.822Z,14.86
2023-05-08T03:56:06.822Z,14.80
2023-05-08T03:59:11.680Z,14.76
2023-05-08T04:02:11.067Z,14.74
2023-05-08T04:04:47.663Z,14.74
2023-05-08T04:07:48.457Z,14.72
2023-05-08T04:10:33.819Z,14.66
2023-05-08T04:13:17.174Z,14.60
2023-05-08T04:16:02.208Z,14.56
2023-05-08T04:18:33.858Z,14.63
2023-05-08T04:21:09.683Z,14.50
2023-05-08T04:23:42.195Z,14.48
2023-05-08T04:26:15.915Z,14.21
2023-05-08T04:28:47.855Z,14.33
2023-05-08T04:31:23.407Z,14.27
2023-05-08T04:33:56.453Z,14.20
2023-05-08T04:36:27.310Z,14.18
2023-05-08T04:38:57.724Z,14.04
2023-05-08T04:41:28.394Z,14.02
2023-05-08T04:43:58.337Z,13.81
2023-05-08T04:46:30.667Z,13.93
2023-05-08T04:49:00.328Z,13.89
2023-05-08T04:51:35.336Z,13.68
2023-05-08T04:54:04.871Z,13.52
2023-05-08T04:56:34.252Z,13.15
2023-05-08T04:59:03.694Z,13.41
2023-05-08T05:01:33.314Z,13.42
2023-05-08T05:04:02.952Z,12.99
2023-05-08T05:06:32.620Z,12.68
2023-05-08T05:09:01.871Z,12.67
2023-05-08T05:11:31.453Z,12.50
2023-05-08T05:14:00.877Z,12.39
2023-05-08T05:16:30.501Z,12.36
2023-05-08T05:18:59.820Z,12.29
2023-05-08T05:21:29.518Z,12.31
2023-05-08T05:24:00.279Z,12.16
2023-05-08T05:26:30.444Z,12.08
2023-05-08T05:29:00.309Z,11.97
2023-05-08T05:31:30.866Z,12.01
2023-05-08T05:34:00.417Z,12.47
2023-05-08T05:36:30.295Z,12.69
2023-05-08T05:38:59.635Z,12.67
2023-05-08T05:41:31.387Z,12.63
2023-05-08T05:44:01.217Z,12.74
2023-05-08T05:46:33.359Z,12.55
2023-05-08T05:49:05.009Z,12.38
2023-05-08T05:51:35.438Z,12.37
2023-05-08T05:54:04.917Z,12.21
2023-05-08T05:56:34.099Z,12.50
2023-05-08T05:59:03.582Z,12.28
2023-05-08T06:01:32.972Z,11.83
2023-05-08T06:04:02.342Z,11.79
2023-05-08T06:06:32.868Z,12.20
2023-05-08T06:09:04.088Z,11.75
2023-05-08T06:11:33.372Z,12.07
2023-05-08T06:14:02.897Z,12.35
2023-05-08T06:16:33.045Z,12.41
2023-05-08T06:19:02.344Z,12.53
2023-05-08T06:21:31.688Z,12.48
2023-05-08T06:24:01.033Z,12.35
2023-05-08T06:26:30.307Z,12.33
2023-05-08T06:28:59.538Z,12.27
2023-05-08T06:31:30.171Z,12.17
2023-05-08T06:33:59.531Z,12.17
2023-05-08T06:36:28.660Z,12.01
2023-05-08T06:38:58.004Z,12.02
2023-05-08T06:41:27.711Z,12.26
2023-05-08T06:43:56.876Z,12.27
2023-05-08T06:46:27.057Z,12.32
2023-05-08T06:48:56.268Z,12.30
2023-05-08T06:51:25.414Z,12.16
2023-05-08T06:53:54.640Z,11.99
2023-05-08T06:56:23.845Z,12.03
2023-05-08T06:59:04.501Z,11.98
2023-05-08T07:01:38.313Z,12.04
2023-05-08T07:04:07.760Z,12.15
2023-05-08T07:06:37.101Z,12.07
2023-05-08T07:09:06.415Z,11.74
2023-05-08T07:11:35.592Z,11.88
2023-05-08T07:14:05.213Z,11.78
2023-05-08T07:16:34.680Z,11.60
2023-05-08T07:19:04.102Z,11.67
2023-05-08T07:21:33.388Z,11.61
2023-05-08T07:24:02.693Z,11.52
2023-05-08T07:26:31.852Z,11.53
2023-05-08T07:29:00.994Z,11.93
2023-05-08T07:31:30.366Z,11.93
2023-05-08T07:33:59.729Z,11.47
2023-05-08T07:36:29.287Z,11.76
2023-05-08T07:38:58.657Z,11.87
2023-05-08T07:41:28.012Z,11.81
2023-05-08T07:43:57.411Z,11.52
2023-05-08T07:46:27.037Z,11.46
2023-05-08T07:48:56.622Z,11.40
2023-05-08T07:51:26.014Z,11.50
2023-05-08T07:53:55.976Z,11.39
2023-05-08T07:56:25.352Z,11.41
2023-05-08T07:58:54.708Z,11.18
2023-05-08T08:01:23.883Z,11.26
2023-05-08T08:03:53.165Z,11.24
2023-05-08T08:06:22.467Z,11.25
2023-05-08T08:08:51.620Z,11.31
2023-05-08T08:11:21.156Z,11.13
2023-05-08T08:13:50.297Z,11.31
2023-05-08T08:16:19.574Z,11.27
2023-05-08T08:18:49.794Z,11.09
2023-05-08T08:21:18.938Z,11.32
2023-05-08T08:23:48.159Z,11.41
2023-05-08T08:26:17.406Z,11.17
2023-05-08T08:28:46.914Z,11.12
2023-05-08T08:31:17.323Z,11.25
2023-05-08T08:33:47.579Z,10.96
2023-05-08T08:36:17.432Z,11.12
2023-05-08T08:38:46.733Z,11.04
2023-05-08T08:41:16.469Z,11.16
2023-05-08T08:43:45.651Z,11.19
2023-05-08T08:46:16.164Z,10.81
2023-05-08T08:48:47.922Z,10.96
2023-05-08T08:51:26.553Z,11.14
2023-05-08T08:54:06.228Z,11.12
2023-05-08T08:56:37.382Z,11.13
2023-05-08T08:59:07.507Z,11.16
2023-05-08T09:01:40.385Z,11.07
2023-05-08T09:04:09.957Z,11.11
2023-05-08T09:06:41.996Z,11.03
2023-05-08T09:09:14.797Z,11.45
2023-05-08T09:11:47.432Z,11.27
2023-05-08T09:14:16.600Z,10.98
2023-05-08T09:16:48.653Z,10.96
2023-05-08T09:19:18.294Z,11.00
2023-05-08T09:21:47.734Z,10.95
2023-05-08T09:24:16.966Z,10.96
2023-05-08T09:26:46.146Z,10.92
2023-05-08T09:29:16.773Z,10.91
2023-05-08T09:31:48.333Z,10.96
2023-05-08T09:34:34.265Z,10.93
2023-05-08T09:37:06.647Z,10.87
2023-05-08T09:39:36.070Z,10.55
2023-05-08T09:42:06.859Z,10.72
2023-05-08T09:45:02.266Z,10.56
2023-05-08T09:47:32.065Z,10.49
2023-05-08T09:50:12.565Z,10.49
2023-05-08T09:52:49.558Z,10.65
2023-05-08T09:55:19.365Z,10.75
2023-05-08T09:57:58.083Z,10.73
2023-05-08T10:00:29.060Z,10.89
2023-05-08T10:02:59.816Z,10.99
2023-05-08T10:05:36.669Z,10.89
2023-05-08T10:08:21.992Z,10.78
2023-05-08T10:10:51.627Z,10.72
2023-05-08T10:13:20.839Z,10.74
2023-05-08T10:15:54.453Z,10.74
2023-05-08T10:18:31.132Z,10.88
2023-05-08T10:21:02.559Z,10.98
2023-05-08T10:23:34.275Z,10.98
2023-05-08T10:26:13.455Z,10.97
2023-05-08T10:28:45.946Z,10.97
2023-05-08T10:31:19.499Z,10.96
2023-05-08T10:33:53.187Z,11.00
2023-05-08T10:36:26.254Z,11.06
2023-05-08T10:38:56.199Z,11.11
2023-05-08T10:41:25.677Z,11.04
2023-05-08T10:43:55.631Z,10.98
2023-05-08T10:46:52.569Z,10.96
2023-05-08T10:49:42.262Z,10.95
2023-05-08T10:52:20.188Z,10.94
2023-05-08T10:54:55.411Z,10.95
2023-05-08T10:57:24.597Z,10.93
2023-05-08T10:59:53.786Z,10.88
2023-05-08T11:02:31.109Z,10.84
2023-05-08T11:05:21.314Z,10.83
2023-05-08T11:08:20.331Z,10.84
2023-05-08T11:11:02.626Z,10.83
2023-05-08T11:13:49.574Z,10.82
2023-05-08T11:16:19.117Z,10.68
2023-05-08T11:19:19.274Z,10.77
2023-05-08T11:22:14.475Z,10.71
2023-05-08T11:24:56.934Z,10.81
2023-05-08T11:27:52.038Z,10.81
2023-05-08T11:30:27.613Z,10.82
2023-05-08T11:33:06.311Z,10.79
2023-05-08T11:35:49.030Z,10.68
2023-05-08T11:38:36.731Z,10.62
2023-05-08T11:41:22.565Z,10.61
2023-05-08T11:44:10.858Z,10.73
2023-05-08T11:46:59.649Z,10.80
2023-05-08T11:49:30.819Z,10.79
2023-05-08T11:52:01.140Z,10.76
2023-05-08T11:54:32.442Z,10.75
2023-05-08T11:57:02.603Z,10.80
2023-05-08T11:59:37.772Z,10.82
2023-05-08T12:02:09.598Z,10.82
2023-05-08T12:04:47.474Z,10.83
2023-05-08T12:07:17.342Z,10.83
2023-05-08T12:09:48.180Z,10.67
2023-05-08T12:12:17.441Z,10.63
2023-05-08T12:14:52.037Z,10.66
2023-05-08T12:17:21.484Z,10.65
2023-05-08T12:19:55.411Z,10.73
2023-05-08T12:22:24.875Z,10.65
2023-05-08T12:24:54.174Z,10.78
2023-05-08T12:27:23.380Z,10.81
2023-05-08T12:29:52.647Z,10.79
2023-05-08T12:32:22.023Z,10.74
2023-05-08T12:34:51.645Z,10.68
2023-05-08T12:37:30.569Z,10.66
2023-05-08T12:39:59.875Z,10.66
2023-05-08T12:42:52.011Z,10.63
2023-05-08T12:45:23.304Z,10.58
2023-05-08T12:47:54.287Z,10.50
2023-05-08T12:50:23.894Z,10.41
2023-05-08T12:52:53.640Z,10.41
2023-05-08T12:55:30.983Z,10.39
2023-05-08T12:58:06.137Z,10.36
2023-05-08T13:00:48.269Z,10.39
2023-05-08T13:03:32.622Z,10.37
2023-05-08T13:06:02.188Z,10.35
2023-05-08T13:08:39.450Z,10.35
2023-05-08T13:11:08.996Z,10.21
2023-05-08T13:13:38.759Z,10.17
2023-05-08T13:16:09.468Z,10.35
2023-05-08T13:18:38.882Z,10.41
2023-05-08T13:21:09.274Z,10.87
2023-05-08T13:23:38.498Z,10.93
2023-05-08T13:26:07.645Z,10.83
2023-05-08T13:28:37.226Z,10.56
2023-05-08T13:31:06.514Z,10.57
2023-05-08T13:33:39.371Z,10.67
2023-05-08T13:36:09.381Z,10.70
2023-05-08T13:38:38.608Z,10.41
2023-05-08T13:41:07.762Z,10.08
2023-05-08T13:43:39.165Z,9.93
2023-05-08T13:46:08.431Z,10.21
2023-05-08T13:48:37.648Z,10.65
2023-05-08T13:51:06.960Z,10.73
2023-05-08T13:53:36.303Z,10.76
2023-05-08T13:56:06.216Z,10.56
2023-05-08T13:58:35.465Z,10.41
2023-05-08T14:01:17.554Z,10.53
2023-05-08T14:03:54.411Z,10.73
2023-05-08T14:06:23.989Z,10.84
2023-05-08T14:08:55.478Z,10.71
2023-05-08T14:11:26.442Z,10.39
2023-05-08T14:13:55.630Z,10.35
2023-05-08T14:16:24.906Z,10.28
2023-05-08T14:18:54.148Z,10.50
2023-05-08T14:21:23.256Z,10.45
2023-05-08T14:23:52.559Z,10.80
2023-05-08T14:26:22.399Z,10.96
2023-05-08T14:28:52.854Z,11.06
2023-05-08T14:31:22.001Z,11.12
2023-05-08T14:33:51.239Z,10.86
2023-05-08T14:36:20.413Z,10.70
2023-05-08T14:38:49.570Z,10.56
2023-05-08T14:41:18.764Z,10.79
2023-05-08T14:43:50.439Z,10.64
2023-05-08T14:46:19.651Z,11.05
2023-05-08T14:48:49.590Z,11.06
2023-05-08T14:51:20.263Z,10.81
2023-05-08T14:53:49.769Z,10.77
2023-05-08T14:56:19.347Z,10.59
2023-05-08T14:58:52.423Z,10.62
2023-05-08T15:01:23.047Z,10.88
2023-05-08T15:03:54.195Z,10.88
2023-05-08T15:06:26.163Z,11.34
2023-05-08T15:08:55.507Z,11.50
2023-05-08T15:11:24.636Z,11.41
2023-05-08T15:13:54.005Z,11.41
2023-05-08T15:16:23.459Z,11.53
2023-05-08T15:18:52.618Z,11.53
2023-05-08T15:21:26.994Z,11.30
2023-05-08T15:23:57.118Z,11.20
2023-05-08T15:26:26.567Z,11.22
2023-05-08T15:28:55.784Z,11.59
2023-05-08T15:31:25.017Z,11.76
2023-05-08T15:33:54.207Z,11.83
2023-05-08T15:36:23.858Z,11.87
2023-05-08T15:38:54.974Z,11.58
2023-05-08T15:41:24.200Z,11.33
2023-05-08T15:43:53.331Z,11.30
2023-05-08T15:46:23.238Z,11.23
2023-05-08T15:48:52.601Z,11.09
2023-05-08T15:51:21.761Z,11.40
2023-05-08T15:53:53.065Z,11.39
2023-05-08T15:56:25.578Z,11.04
2023-05-08T15:58:55.126Z,11.14
2023-05-08T16:01:25.049Z,11.67
2023-05-08T16:03:54.569Z,11.29
2023-05-08T16:06:23.873Z,11.27
2023-05-08T16:08:53.947Z,11.69
2023-05-08T16:11:23.476Z,11.84
2023-05-08T16:13:53.461Z,11.91
2023-05-08T16:16:26.992Z,11.92
2023-05-08T16:18:56.730Z,12.04
2023-05-08T16:21:31.192Z,11.95
2023-05-08T16:24:04.015Z,11.92
2023-05-08T16:26:33.399Z,12.09
2023-05-08T16:29:02.745Z,12.07
2023-05-08T16:31:31.995Z,12.12
2023-05-08T16:34:02.110Z,12.23
2023-05-08T16:36:34.420Z,12.26
2023-05-08T16:39:04.046Z,12.27
2023-05-08T16:41:34.031Z,12.25
2023-05-08T16:44:03.442Z,12.22
2023-05-08T16:46:32.737Z,12.14
2023-05-08T16:49:02.573Z,12.27
2023-05-08T16:51:33.294Z,12.45
2023-05-08T16:54:03.228Z,12.46
2023-05-08T16:56:35.978Z,12.54
2023-05-08T16:59:07.511Z,12.53
2023-05-08T17:01:36.793Z,12.54
2023-05-08T17:04:05.886Z,12.61
2023-05-08T17:06:34.917Z,12.65
2023-05-08T17:09:04.042Z,12.83
2023-05-08T17:11:36.545Z,12.81
2023-05-08T17:14:05.729Z,12.93
2023-05-08T17:16:34.969Z,13.10
2023-05-08T17:19:13.540Z,13.23
2023-05-08T17:21:42.746Z,13.18
2023-05-08T17:24:14.615Z,13.13
2023-05-08T17:26:44.406Z,13.36
2023-05-08T17:29:13.493Z,13.59
2023-05-08T17:31:42.588Z,13.51
2023-05-08T17:34:11.710Z,13.60
2023-05-08T17:36:40.591Z,13.55
2023-05-08T17:39:12.659Z,13.64
2023-05-08T17:41:41.669Z,13.77
2023-05-08T17:44:10.645Z,13.86
2023-05-08T17:46:39.735Z,13.78
2023-05-08T17:49:08.828Z,13.97
2023-05-08T17:51:37.873Z,14.09
2023-05-08T17:54:07.722Z,14.28
2023-05-08T17:56:37.425Z,13.83
2023-05-08T17:59:06.799Z,14.10
2023-05-08T18:01:35.733Z,14.15
2023-05-08T18:04:05.125Z,14.45
2023-05-08T18:06:34.143Z,14.42
2023-05-08T18:09:03.284Z,14.40
2023-05-08T18:11:32.367Z,14.57
2023-05-08T18:14:01.336Z,14.20
2023-05-08T18:16:30.423Z,14.28
2023-05-08T18:18:59.417Z,14.49
2023-05-08T18:21:29.657Z,14.51
2023-05-08T18:23:58.584Z,14.70
2023-05-08T18:26:27.497Z,14.77
2023-05-08T18:28:56.964Z,14.95
2023-05-08T18:31:29.031Z,15.03
2023-05-08T18:33:57.992Z,15.22
2023-05-08T18:36:27.255Z,15.24
2023-05-08T18:38:56.356Z,15.36
2023-05-08T18:41:25.254Z,15.70
2023-05-08T18:43:54.371Z,15.34
2023-05-08T18:46:23.482Z,15.54
2023-05-08T18:48:52.372Z,15.60
2023-05-08T18:51:21.572Z,15.65
2023-05-08T18:53:50.464Z,15.85
2023-05-08T18:56:20.425Z,16.23
2023-05-08T18:58:50.010Z,16.17
2023-05-08T19:01:20.719Z,16.39
2023-05-08T19:03:49.672Z,16.64
2023-05-08T19:06:18.842Z,16.59
2023-05-08T19:08:48.328Z,16.60
2023-05-08T19:11:17.820Z,16.49
2023-05-08T19:13:46.778Z,16.58
2023-05-08T19:16:15.871Z,17.02
2023-05-08T19:18:44.841Z,17.34
2023-05-08T19:21:13.939Z,17.35
2023-05-08T19:23:42.939Z,17.25
2023-05-08T19:26:12.948Z,17.03
2023-05-08T19:28:42.064Z,17.29
2023-05-08T19:31:11.051Z,17.33
2023-05-08T19:33:40.062Z,17.20
2023-05-08T19:36:09.038Z,17.05
2023-05-08T19:38:40.833Z,17.39
2023-05-08T19:41:10.066Z,17.69
2023-05-08T19:43:47.690Z,17.59
2023-05-08T19:46:20.550Z,17.79
2023-05-08T19:48:49.490Z,17.42
2023-05-08T19:51:18.773Z,17.90
2023-05-08T19:53:47.732Z,18.02
2023-05-08T19:56:16.760Z,18.15
2023-05-08T19:58:45.700Z,17.86
2023-05-08T20:01:15.051Z,18.05
2023-05-08T20:03:44.179Z,18.17
2023-05-08T20:06:13.375Z,18.37
2023-05-08T20:08:42.418Z,18.47
2023-05-08T20:11:12.581Z,18.35
2023-05-08T20:13:41.712Z,17.77
2023-05-08T20:16:10.658Z,17.76
2023-05-08T20:18:40.007Z,17.65
2023-05-08T20:21:09.042Z,17.89
2023-05-08T20:23:39.771Z,18.33
2023-05-08T20:26:09.540Z,18.52
2023-05-08T20:28:38.648Z,18.57
2023-05-08T20:31:08.378Z,18.58
2023-05-08T20:33:37.612Z,18.61
2023-05-08T20:36:06.723Z,18.66
2023-05-08T20:38:37.588Z,18.84
2023-05-08T20:41:06.809Z,18.93
2023-05-08T20:43:35.677Z,19.12
2023-05-08T20:46:04.755Z,19.14
2023-05-08T20:48:33.761Z,18.72
2023-05-08T20:51:02.951Z,18.56
2023-05-08T20:53:32.891Z,18.43
2023-05-08T20:56:06.202Z,18.70
2023-05-08T20:58:35.794Z,19.01
2023-05-08T21:01:04.981Z,19.32
2023-05-08T21:03:34.674Z,19.26
2023-05-08T21:06:04.395Z,19.44
2023-05-08T21:08:33.418Z,19.56
2023-05-08T21:11:03.063Z,19.70
2023-05-08T21:13:32.864Z,19.53
2023-05-08T21:16:01.837Z,19.76
2023-05-08T21:18:30.783Z,19.94
2023-05-08T21:20:59.747Z,19.65
2023-05-08T21:23:30.938Z,19.29
2023-05-08T21:25:59.974Z,18.95
2023-05-08T21:28:29.074Z,18.78
2023-05-08T21:30:58.782Z,18.44
2023-05-08T21:33:27.737Z,18.39
2023-05-08T21:35:56.803Z,18.24
2023-05-08T21:38:25.921Z,18.22
2023-05-08T21:40:54.859Z,18.14
2023-05-08T21:43:23.934Z,17.56
2023-05-08T21:45:53.607Z,17.52
2023-05-08T21:48:23.780Z,17.59
2023-05-08T21:50:52.848Z,17.45
2023-05-08T21:53:21.773Z,17.25
2023-05-08T21:55:50.700Z,17.47
2023-05-08T21:58:19.683Z,17.52
2023-05-08T22:00:48.903Z,17.60
2023-05-08T22:03:17.928Z,17.53
2023-05-08T22:05:48.224Z,17.66
2023-05-08T22:08:17.331Z,17.68
2023-05-08T22:10:47.098Z,18.06
2023-05-08T22:13:16.120Z,18.18
2023-05-08T22:15:45.149Z,18.22
2023-05-08T22:18:15.143Z,18.27
2023-05-08T22:20:44.191Z,18.10
2023-05-08T22:23:13.084Z,17.92
2023-05-08T22:25:42.068Z,17.82
2023-05-08T22:28:11.347Z,17.79
2023-05-08T22:30:40.317Z,17.70
2023-05-08T22:33:09.281Z,17.81
2023-05-08T22:35:38.425Z,17.78
2023-05-08T22:38:07.440Z,17.84
2023-05-08T22:40:37.037Z,17.97
2023-05-08T22:43:06.454Z,17.55
2023-05-08T22:45:35.878Z,17.32
2023-05-08T22:48:05.278Z,17.51
2023-05-08T22:50:34.261Z,17.87
2023-05-08T22:53:08.695Z,17.85
2023-05-08T22:55:38.383Z,17.93
2023-05-08T22:58:07.809Z,18.35
2023-05-08T23:00:36.958Z,18.57
2023-05-08T23:03:06.072Z,18.06
2023-05-08T23:05:35.209Z,18.39
2023-05-08T23:08:04.556Z,18.30
2023-05-08T23:10:33.630Z,18.12
2023-05-08T23:13:05.072Z,18.10
2023-05-08T23:15:34.076Z,18.34
2023-05-08T23:18:03.336Z,18.15
2023-05-08T23:20:32.389Z,18.14
2023-05-08T23:23:01.341Z,19.19
2023-05-08T23:25:30.254Z,18.71
2023-05-08T23:27:59.268Z,18.84
2023-05-08T23:30:28.440Z,19.13
2023-05-08T23:32:57.422Z,19.94
2023-05-08T23:35:26.549Z,20.25
2023-05-08T23:37:55.505Z,19.98
2023-05-08T23:40:24.604Z,19.25
2023-05-08T23:42:53.675Z,19.09
2023-05-08T23:45:23.130Z,18.61
2023-05-08T23:47:52.505Z,19.31
2023-05-08T23:50:21.665Z,19.61
2023-05-08T23:52:50.616Z,19.56
2023-05-08T23:55:19.619Z,19.66
2023-05-08T23:57:48.622Z,19.37
